createdAt,value
2023-02-19T00:01:28.776Z,99634.03
2023-02-19T00:03:57.565Z,99647.78
2023-02-19T00:06:25.261Z,99642.13
2023-02-19T00:08:52.426Z,99639.59
2023-02-19T00:11:20.708Z,99642.13
2023-02-19T00:13:49.522Z,99638.59
2023-02-19T00:16:17.621Z,99630.69
2023-02-19T00:18:45.338Z,99633.50
2023-02-19T00:21:12.926Z,99642.31
2023-02-19T00:23:40.174Z,99639.75
2023-02-19T00:26:18.312Z,99640.16
2023-02-19T00:28:46.668Z,99642.69
2023-02-19T00:31:21.740Z,99639.03
2023-02-19T00:33:49.657Z,99631.50
2023-02-19T00:36:17.276Z,99637.59
2023-02-19T00:38:44.800Z,99627.28
2023-02-19T00:41:21.240Z,99629.22
2023-02-19T00:43:48.749Z,99623.00
2023-02-19T00:46:16.542Z,99628.09
2023-02-19T00:48:43.851Z,99628.37
2023-02-19T00:51:11.597Z,99632.66
2023-02-19T00:53:38.998Z,99630.94
2023-02-19T00:56:06.677Z,99624.75
2023-02-19T00:58:34.168Z,99624.44
2023-02-19T01:01:01.431Z,99623.44
2023-02-19T01:03:28.677Z,99627.47
2023-02-19T01:05:56.192Z,99621.63
2023-02-19T01:08:23.374Z,99631.53
2023-02-19T01:10:50.573Z,99628.84
2023-02-19T01:13:18.166Z,99622.44
2023-02-19T01:15:45.516Z,99621.91
2023-02-19T01:18:12.719Z,99624.31
2023-02-19T01:20:40.845Z,99626.75
2023-02-19T01:23:08.157Z,99628.41
2023-02-19T01:25:35.345Z,99622.19
2023-02-19T01:28:03.033Z,99621.44
2023-02-19T01:30:30.174Z,99609.56
2023-02-19T01:32:57.408Z,99614.19
2023-02-19T01:35:26.535Z,99613.66
2023-02-19T01:37:53.704Z,99612.97
2023-02-19T01:40:21.534Z,99602.72
2023-02-19T01:42:48.974Z,99597.75
2023-02-19T01:45:26.993Z,99602.19
2023-02-19T01:48:11.563Z,99597.63
2023-02-19T01:50:46.180Z,99596.25
2023-02-19T01:53:13.894Z,99597.09
2023-02-19T01:55:41.137Z,99588.59
2023-02-19T01:58:08.378Z,99593.28
2023-02-19T02:00:38.314Z,99593.06
2023-02-19T02:03:05.900Z,99594.09
2023-02-19T02:05:36.439Z,99586.75
2023-02-19T02:08:22.581Z,99598.19
2023-02-19T02:10:50.206Z,99597.06
2023-02-19T02:13:17.619Z,99592.00
2023-02-19T02:15:47.366Z,99589.47
2023-02-19T02:18:26.842Z,99583.38
2023-02-19T02:21:23.628Z,99590.03
2023-02-19T02:23:56.467Z,99593.31
2023-02-19T02:26:32.377Z,99598.66
2023-02-19T02:29:11.848Z,99592.81
2023-02-19T02:31:41.495Z,99583.38
2023-02-19T02:34:14.216Z,99592.44
2023-02-19T02:36:42.628Z,99589.16
2023-02-19T02:39:14.606Z,99594.88
2023-02-19T02:41:42.981Z,99590.47
2023-02-19T02:44:10.455Z,99591.53
2023-02-19T02:46:38.859Z,99587.44
2023-02-19T02:49:07.029Z,99579.38
2023-02-19T02:51:45.070Z,99583.94
2023-02-19T02:54:35.632Z,99592.22
2023-02-19T02:57:03.340Z,99589.87
2023-02-19T02:59:32.105Z,99586.66
2023-02-19T03:02:14.118Z,99582.94
2023-02-19T03:05:11.931Z,99577.75
2023-02-19T03:07:43.975Z,99578.59
2023-02-19T03:10:12.621Z,99570.84
2023-02-19T03:12:59.042Z,99583.94
2023-02-19T03:15:50.850Z,99578.41
2023-02-19T03:18:36.780Z,99573.03
2023-02-19T03:21:04.382Z,99579.50
2023-02-19T03:23:50.563Z,99573.19
2023-02-19T03:26:18.260Z,99585.22
2023-02-19T03:29:04.550Z,99582.16
2023-02-19T03:31:32.372Z,99580.84
2023-02-19T03:34:00.339Z,99587.69
2023-02-19T03:36:28.729Z,99586.84
2023-02-19T03:39:00.546Z,99593.84
2023-02-19T03:41:33.849Z,99595.19
2023-02-19T03:44:07.982Z,99580.88
2023-02-19T03:46:44.506Z,99584.09
2023-02-19T03:49:25.006Z,99580.50
2023-02-19T03:52:10.447Z,99576.53
2023-02-19T03:54:38.573Z,99579.63
2023-02-19T03:57:24.007Z,99574.47
2023-02-19T03:59:53.773Z,99577.88
2023-02-19T04:02:32.903Z,99572.16
2023-02-19T04:05:12.013Z,99581.56
2023-02-19T04:07:42.040Z,99585.09
2023-02-19T04:10:09.700Z,99584.06
2023-02-19T04:12:39.350Z,99571.47
2023-02-19T04:15:13.577Z,99588.72
2023-02-19T04:17:46.122Z,99584.94
2023-02-19T04:20:13.253Z,99587.97
2023-02-19T04:22:40.672Z,99590.47
2023-02-19T04:25:08.252Z,99600.75
2023-02-19T04:27:39.014Z,99598.69
2023-02-19T04:30:07.161Z,99597.63
2023-02-19T04:32:34.303Z,99600.97
2023-02-19T04:35:01.612Z,99608.41
2023-02-19T04:37:29.153Z,99600.88
2023-02-19T04:39:56.306Z,99600.03
2023-02-19T04:42:23.463Z,99599.94
2023-02-19T04:44:50.933Z,99608.62
2023-02-19T04:47:18.081Z,99607.25
2023-02-19T04:49:45.576Z,99616.34
2023-02-19T04:52:13.124Z,99610.13
2023-02-19T04:54:40.270Z,99607.47
2023-02-19T04:57:07.441Z,99607.28
2023-02-19T04:59:34.915Z,99602.09
2023-02-19T05:02:02.121Z,99605.94
2023-02-19T05:04:29.297Z,99604.28
2023-02-19T05:06:56.760Z,99608.41
2023-02-19T05:09:23.909Z,99602.75
2023-02-19T05:11:51.091Z,99594.81
2023-02-19T05:14:18.602Z,99606.88
2023-02-19T05:16:45.784Z,99595.53
2023-02-19T05:19:12.972Z,99603.31
2023-02-19T05:21:40.721Z,99591.03
2023-02-19T05:24:07.892Z,99598.16
2023-02-19T05:26:35.228Z,99593.81
2023-02-19T05:29:02.709Z,99599.50
2023-02-19T05:31:30.018Z,99597.16
2023-02-19T05:33:57.265Z,99584.19
2023-02-19T05:36:24.704Z,99579.38
2023-02-19T05:38:52.732Z,99577.59
2023-02-19T05:41:21.091Z,99578.28
2023-02-19T05:43:49.069Z,99589.94
2023-02-19T05:46:17.684Z,99588.31
2023-02-19T05:48:45.092Z,99601.66
2023-02-19T05:51:13.575Z,99592.13
2023-02-19T05:53:40.743Z,99597.19
2023-02-19T05:56:19.340Z,99597.00
2023-02-19T05:58:46.755Z,99593.78
2023-02-19T06:01:17.422Z,99604.72
2023-02-19T06:03:44.944Z,99597.34
2023-02-19T06:06:15.926Z,99602.00
2023-02-19T06:08:43.297Z,99597.25
2023-02-19T06:11:10.947Z,99594.25
2023-02-19T06:13:38.310Z,99600.16
2023-02-19T06:16:06.030Z,99594.63
2023-02-19T06:18:33.654Z,99594.97
2023-02-19T06:21:04.947Z,99590.44
2023-02-19T06:23:32.306Z,99592.13
2023-02-19T06:26:19.596Z,99589.31
2023-02-19T06:28:47.404Z,99592.00
2023-02-19T06:31:15.161Z,99579.66
2023-02-19T06:33:42.556Z,99577.41
2023-02-19T06:36:16.350Z,99583.66
2023-02-19T06:38:43.841Z,99581.91
2023-02-19T06:41:11.650Z,99583.50
2023-02-19T06:43:38.990Z,99578.25
2023-02-19T06:46:06.748Z,99571.19
2023-02-19T06:48:34.005Z,99569.44
2023-02-19T06:51:01.151Z,99570.19
2023-02-19T06:53:28.632Z,99578.50
2023-02-19T06:55:59.254Z,99569.34
2023-02-19T06:58:26.487Z,99572.88
2023-02-19T07:00:54.361Z,99569.19
2023-02-19T07:03:21.605Z,99564.53
2023-02-19T07:05:49.012Z,99573.09
2023-02-19T07:08:19.507Z,99568.03
2023-02-19T07:10:53.603Z,99573.69
2023-02-19T07:13:21.027Z,99575.41
2023-02-19T07:15:48.682Z,99585.53
2023-02-19T07:18:16.693Z,99589.53
2023-02-19T07:20:44.162Z,99586.59
2023-02-19T07:23:11.317Z,99576.31
2023-02-19T07:25:39.047Z,99568.16
2023-02-19T07:28:06.970Z,99580.97
2023-02-19T07:30:34.237Z,99575.75
2023-02-19T07:33:01.621Z,99574.72
2023-02-19T07:35:29.006Z,99570.47
2023-02-19T07:37:56.133Z,99566.47
2023-02-19T07:40:23.317Z,99569.56
2023-02-19T07:42:50.770Z,99565.91
2023-02-19T07:45:17.923Z,99560.72
2023-02-19T07:47:45.135Z,99547.19
2023-02-19T07:50:14.042Z,99543.63
2023-02-19T07:52:41.368Z,99564.16
2023-02-19T07:55:08.594Z,99566.19
2023-02-19T07:57:36.041Z,99576.53
2023-02-19T08:00:03.369Z,99580.91
2023-02-19T08:03:05.920Z,99599.66
2023-02-19T08:05:34.642Z,99607.00
2023-02-19T08:08:01.823Z,99607.38
2023-02-19T08:10:47.819Z,99613.34
2023-02-19T08:13:28.103Z,99613.97
2023-02-19T08:16:01.648Z,99616.94
2023-02-19T08:18:35.242Z,99621.38
2023-02-19T08:21:02.384Z,99630.94
2023-02-19T08:23:29.629Z,99637.97
2023-02-19T08:25:57.823Z,99634.28
2023-02-19T08:28:24.956Z,99629.22
2023-02-19T08:30:52.203Z,99633.44
2023-02-19T08:33:21.101Z,99630.38
2023-02-19T08:35:48.217Z,99629.44
2023-02-19T08:38:16.474Z,99622.50
2023-02-19T08:40:44.144Z,99622.63
2023-02-19T08:43:15.374Z,99615.31
2023-02-19T08:45:43.225Z,99620.06
2023-02-19T08:48:11.352Z,99622.13
2023-02-19T08:50:38.775Z,99627.25
2023-02-19T08:53:06.305Z,99622.13
2023-02-19T08:55:33.833Z,99620.91
2023-02-19T08:58:01.249Z,99614.81
2023-02-19T09:00:28.691Z,99609.00
2023-02-19T09:02:57.681Z,99620.53
2023-02-19T09:05:24.866Z,99619.31
2023-02-19T09:07:52.044Z,99623.09
2023-02-19T09:10:19.592Z,99609.28
2023-02-19T09:12:46.715Z,99626.56
2023-02-19T09:15:14.274Z,99614.34
2023-02-19T09:17:41.787Z,99606.13
2023-02-19T09:20:09.288Z,99619.69
2023-02-19T09:22:39.354Z,99618.66
2023-02-19T09:25:06.839Z,99614.69
2023-02-19T09:27:34.040Z,99612.06
2023-02-19T09:30:01.517Z,99611.78
2023-02-19T09:32:32.363Z,99615.94
2023-02-19T09:34:59.516Z,99611.31
2023-02-19T09:37:27.425Z,99608.81
2023-02-19T09:39:55.123Z,99613.03
2023-02-19T09:42:27.495Z,99613.34
2023-02-19T09:44:55.511Z,99608.47
2023-02-19T09:47:23.546Z,99598.50
2023-02-19T09:49:52.263Z,99605.31
2023-02-19T09:52:27.933Z,99603.72
2023-02-19T09:54:57.865Z,99603.78
2023-02-19T09:57:25.934Z,99605.41
2023-02-19T09:59:54.222Z,99599.25
2023-02-19T10:02:22.347Z,99602.34
2023-02-19T10:04:51.275Z,99584.47
2023-02-19T10:07:22.024Z,99583.75
2023-02-19T10:09:56.805Z,99589.03
2023-02-19T10:12:27.869Z,99583.44
2023-02-19T10:15:15.643Z,99574.16
2023-02-19T10:17:42.888Z,99572.31
2023-02-19T10:20:28.527Z,99568.47
2023-02-19T10:23:03.513Z,99558.09
2023-02-19T10:25:31.433Z,99559.06
2023-02-19T10:27:59.644Z,99556.50
2023-02-19T10:30:33.889Z,99559.59
2023-02-19T10:33:08.693Z,99553.44
2023-02-19T10:35:36.404Z,99539.50
2023-02-19T10:38:06.689Z,99533.56
2023-02-19T10:40:33.950Z,99529.44
2023-02-19T10:43:01.904Z,99523.19
2023-02-19T10:45:38.831Z,99522.13
2023-02-19T10:48:07.434Z,99528.97
2023-02-19T10:50:37.868Z,99531.38
2023-02-19T10:53:05.242Z,99516.25
2023-02-19T10:55:35.545Z,99513.28
2023-02-19T10:58:25.837Z,99513.75
2023-02-19T11:01:13.208Z,99501.31
2023-02-19T11:03:40.708Z,99512.69
2023-02-19T11:06:09.008Z,99503.22
2023-02-19T11:08:38.971Z,99502.56
2023-02-19T11:11:06.385Z,99500.28
2023-02-19T11:13:37.915Z,99496.97
2023-02-19T11:16:05.242Z,99497.13
2023-02-19T11:18:32.825Z,99486.62
2023-02-19T11:21:04.120Z,99493.47
2023-02-19T11:23:34.884Z,99484.94
2023-02-19T11:26:06.544Z,99485.41
2023-02-19T11:28:40.243Z,99492.38
2023-02-19T11:31:15.840Z,99492.13
2023-02-19T11:33:46.343Z,99507.81
2023-02-19T11:36:17.807Z,99491.50
2023-02-19T11:38:45.019Z,99483.59
2023-02-19T11:41:18.195Z,99463.97
2023-02-19T11:43:45.611Z,99472.53
2023-02-19T11:46:12.807Z,99473.72
2023-02-19T11:48:42.912Z,99471.62
2023-02-19T11:51:10.606Z,99463.47
2023-02-19T11:53:40.015Z,99457.16
2023-02-19T11:56:10.312Z,99461.72
2023-02-19T11:58:37.765Z,99451.84
2023-02-19T12:01:25.698Z,99449.69
2023-02-19T12:03:53.055Z,99447.13
2023-02-19T12:06:29.037Z,99447.91
2023-02-19T12:09:08.278Z,99430.72
2023-02-19T12:11:46.328Z,99427.28
2023-02-19T12:14:25.732Z,99416.00
2023-02-19T12:17:05.435Z,99420.53
2023-02-19T12:19:45.268Z,99413.31
2023-02-19T12:22:31.996Z,99405.94
2023-02-19T12:25:18.173Z,99407.31
2023-02-19T12:28:04.333Z,99400.91
2023-02-19T12:30:35.914Z,99400.63
2023-02-19T12:33:06.071Z,99396.12
2023-02-19T12:35:40.121Z,99412.09
2023-02-19T12:38:11.542Z,99401.81
2023-02-19T12:40:49.254Z,99395.97
2023-02-19T12:43:20.021Z,99401.97
2023-02-19T12:45:49.063Z,99382.13
2023-02-19T12:48:19.227Z,99399.19
2023-02-19T12:50:46.779Z,99393.84
2023-02-19T12:53:17.608Z,99401.06
2023-02-19T12:55:45.374Z,99392.13
2023-02-19T12:58:16.694Z,99389.31
2023-02-19T13:00:45.315Z,99391.66
2023-02-19T13:03:31.447Z,99385.09
2023-02-19T13:06:17.932Z,99381.94
2023-02-19T13:09:05.846Z,99385.88
2023-02-19T13:11:36.863Z,99367.16
2023-02-19T13:14:13.616Z,99381.84
2023-02-19T13:16:41.668Z,99360.94
2023-02-19T13:19:09.363Z,99352.91
2023-02-19T13:21:55.430Z,99346.53
2023-02-19T13:24:24.476Z,99347.22
2023-02-19T13:26:58.346Z,99340.22
2023-02-19T13:29:44.754Z,99341.25
2023-02-19T13:32:18.368Z,99336.47
2023-02-19T13:34:48.582Z,99329.50
2023-02-19T13:37:15.962Z,99331.63
2023-02-19T13:39:50.755Z,99318.62
2023-02-19T13:42:24.386Z,99327.69
2023-02-19T13:44:57.741Z,99323.72
2023-02-19T13:47:45.293Z,99319.75
2023-02-19T13:50:22.721Z,99350.25
2023-02-19T13:52:50.861Z,99350.03
2023-02-19T13:55:41.540Z,99355.72
2023-02-19T13:58:27.541Z,99371.09
2023-02-19T14:00:55.053Z,99373.56
2023-02-19T14:03:29.410Z,99399.47
2023-02-19T14:06:05.967Z,99423.41
2023-02-19T14:08:49.652Z,99436.44
2023-02-19T14:11:17.425Z,99445.53
2023-02-19T14:13:51.008Z,99476.53
2023-02-19T14:16:30.393Z,99525.12
2023-02-19T14:18:57.947Z,99492.09
2023-02-19T14:21:48.513Z,99501.19
2023-02-19T14:24:16.075Z,99486.91
2023-02-19T14:26:43.390Z,99490.78
2023-02-19T14:29:12.569Z,99492.97
2023-02-19T14:31:40.378Z,99496.22
2023-02-19T14:34:14.629Z,99502.34
2023-02-19T14:36:48.694Z,99498.34
2023-02-19T14:39:23.112Z,99492.81
2023-02-19T14:41:57.599Z,99492.72
2023-02-19T14:44:25.819Z,99487.97
2023-02-19T14:46:57.994Z,99479.03
2023-02-19T14:49:37.768Z,99482.09
2023-02-19T14:52:06.955Z,99483.72
2023-02-19T14:54:36.693Z,99473.09
2023-02-19T14:57:04.400Z,99473.50
2023-02-19T14:59:31.747Z,99465.03
2023-02-19T15:02:17.881Z,99458.28
2023-02-19T15:04:45.625Z,99463.81
2023-02-19T15:07:17.728Z,99485.47
2023-02-19T15:09:47.090Z,99501.91
2023-02-19T15:12:18.952Z,99521.41
2023-02-19T15:14:46.363Z,99540.25
2023-02-19T15:17:22.332Z,99540.50
2023-02-19T15:19:49.980Z,99541.63
2023-02-19T15:22:19.133Z,99533.25
2023-02-19T15:24:48.585Z,99528.78
2023-02-19T15:27:20.109Z,99515.06
2023-02-19T15:29:48.331Z,99529.75
2023-02-19T15:32:16.999Z,99526.06
2023-02-19T15:34:48.412Z,99536.41
2023-02-19T15:37:16.087Z,99546.34
2023-02-19T15:39:47.817Z,99567.16
2023-02-19T15:42:16.825Z,99561.44
2023-02-19T15:44:44.377Z,99548.00
2023-02-19T15:47:14.872Z,99558.53
2023-02-19T15:49:47.013Z,99550.59
2023-02-19T15:52:20.571Z,99547.88
2023-02-19T15:55:03.046Z,99542.69
2023-02-19T15:57:32.405Z,99547.31
2023-02-19T16:00:05.686Z,99549.34
2023-02-19T16:02:39.477Z,99542.91
2023-02-19T16:05:15.613Z,99550.41
2023-02-19T16:07:43.745Z,99541.84
2023-02-19T16:10:24.901Z,99540.31
2023-02-19T16:12:56.120Z,99554.25
2023-02-19T16:15:24.080Z,99559.16
2023-02-19T16:17:51.372Z,99573.13
2023-02-19T16:20:22.719Z,99577.81
2023-02-19T16:22:50.741Z,99578.28
2023-02-19T16:25:25.637Z,99565.94
2023-02-19T16:27:53.271Z,99580.84
2023-02-19T16:30:26.663Z,99580.41
2023-02-19T16:33:13.111Z,99577.41
2023-02-19T16:35:40.423Z,99576.38
2023-02-19T16:38:16.010Z,99580.84
2023-02-19T16:40:43.260Z,99594.44
2023-02-19T16:43:13.650Z,99600.47
2023-02-19T16:45:41.407Z,99614.94
2023-02-19T16:48:08.933Z,99616.66
2023-02-19T16:50:36.552Z,99619.50
2023-02-19T16:53:04.057Z,99628.88
2023-02-19T16:55:32.660Z,99633.13
2023-02-19T16:58:00.477Z,99629.13
2023-02-19T17:00:28.886Z,99621.81
2023-02-19T17:02:57.455Z,99634.81
2023-02-19T17:05:25.948Z,99635.47
2023-02-19T17:07:53.390Z,99647.75
2023-02-19T17:10:24.674Z,99640.53
2023-02-19T17:12:52.577Z,99652.03
2023-02-19T17:15:19.995Z,99637.16
2023-02-19T17:17:47.361Z,99639.78
2023-02-19T17:20:17.920Z,99630.69
2023-02-19T17:22:45.270Z,99640.63
2023-02-19T17:25:13.323Z,99623.56
2023-02-19T17:27:41.398Z,99617.34
2023-02-19T17:30:12.476Z,99626.38
2023-02-19T17:32:39.831Z,99622.81
2023-02-19T17:35:07.568Z,99612.37
2023-02-19T17:37:34.787Z,99610.03
2023-02-19T17:40:02.370Z,99625.88
2023-02-19T17:42:31.146Z,99632.81
2023-02-19T17:44:58.483Z,99634.63
2023-02-19T17:47:25.804Z,99639.38
2023-02-19T17:49:53.411Z,99650.56
2023-02-19T17:52:20.830Z,99657.16
2023-02-19T17:54:48.225Z,99662.66
2023-02-19T17:57:15.910Z,99664.66
2023-02-19T17:59:43.390Z,99681.87
2023-02-19T18:02:12.249Z,99665.66
2023-02-19T18:04:41.178Z,99681.28
2023-02-19T18:07:08.888Z,99647.47
2023-02-19T18:09:36.077Z,99639.69
2023-02-19T18:12:03.909Z,99646.56
2023-02-19T18:14:31.306Z,99642.47
2023-02-19T18:16:58.805Z,99650.69
2023-02-19T18:19:26.425Z,99649.09
2023-02-19T18:21:53.823Z,99658.81
2023-02-19T18:24:21.465Z,99666.59
2023-02-19T18:26:49.142Z,99671.41
2023-02-19T18:29:18.530Z,99680.09
2023-02-19T18:31:47.030Z,99691.44
2023-02-19T18:34:18.376Z,99694.91
2023-02-19T18:36:46.377Z,99705.22
2023-02-19T18:39:13.738Z,99707.12
2023-02-19T18:41:41.393Z,99727.63
2023-02-19T18:44:08.877Z,99722.81
2023-02-19T18:46:36.022Z,99724.88
2023-02-19T18:49:03.690Z,99730.12
2023-02-19T18:51:30.879Z,99729.28
2023-02-19T18:53:58.468Z,99738.72
2023-02-19T18:56:26.106Z,99747.19
2023-02-19T18:58:53.293Z,99758.44
2023-02-19T19:01:23.200Z,99767.31
2023-02-19T19:03:50.906Z,99758.88
2023-02-19T19:06:18.380Z,99784.44
2023-02-19T19:08:45.830Z,99786.53
2023-02-19T19:11:13.676Z,99795.22
2023-02-19T19:13:41.120Z,99793.78
2023-02-19T19:16:08.495Z,99798.66
2023-02-19T19:18:38.221Z,99804.44
2023-02-19T19:21:05.991Z,99809.03
2023-02-19T19:23:33.370Z,99811.37
2023-02-19T19:26:06.715Z,99820.75
2023-02-19T19:28:36.009Z,99822.88
2023-02-19T19:31:03.712Z,99829.50
2023-02-19T19:33:31.085Z,99852.19
2023-02-19T19:35:58.496Z,99858.09
2023-02-19T19:38:27.126Z,99869.63
2023-02-19T19:40:54.829Z,99880.00
2023-02-19T19:43:22.229Z,99881.88
2023-02-19T19:45:50.452Z,99885.72
2023-02-19T19:48:17.839Z,99892.09
2023-02-19T19:50:45.250Z,99884.06
2023-02-19T19:53:12.845Z,99888.56
2023-02-19T19:55:40.226Z,99886.97
2023-02-19T19:58:07.674Z,99881.63
2023-02-19T20:00:35.260Z,99889.03
2023-02-19T20:03:02.954Z,99887.63
2023-02-19T20:05:30.400Z,99877.72
2023-02-19T20:07:57.792Z,99876.84
2023-02-19T20:10:25.495Z,99876.56
2023-02-19T20:12:53.943Z,99883.50
2023-02-19T20:15:22.049Z,99897.97
2023-02-19T20:17:49.935Z,99898.00
2023-02-19T20:20:18.004Z,99911.44
2023-02-19T20:22:45.361Z,99905.88
2023-02-19T20:25:13.067Z,99926.53
2023-02-19T20:27:41.685Z,99933.69
2023-02-19T20:30:11.507Z,99942.91
2023-02-19T20:32:39.218Z,99954.06
2023-02-19T20:35:06.696Z,99947.78
2023-02-19T20:37:34.190Z,99965.50
2023-02-19T20:40:02.041Z,99958.13
2023-02-19T20:42:29.317Z,99963.31
2023-02-19T20:44:57.695Z,99964.69
2023-02-19T20:47:25.304Z,99973.88
2023-02-19T20:49:52.771Z,99964.41
2023-02-19T20:52:24.763Z,99959.09
2023-02-19T20:54:55.992Z,99973.66
2023-02-19T20:57:23.634Z,99977.63
2023-02-19T20:59:50.925Z,99989.22
2023-02-19T21:02:24.571Z,99979.59
2023-02-19T21:04:52.140Z,99982.75
2023-02-19T21:07:20.022Z,99991.41
2023-02-19T21:09:47.368Z,99982.16
2023-02-19T21:12:14.678Z,99991.78
2023-02-19T21:14:42.303Z,99995.31
2023-02-19T21:17:10.109Z,99983.91
2023-02-19T21:19:37.284Z,99995.41
2023-02-19T21:22:04.951Z,100000.31
2023-02-19T21:24:32.828Z,99981.31
2023-02-19T21:27:00.191Z,99997.84
2023-02-19T21:29:27.849Z,99990.62
2023-02-19T21:31:55.682Z,99995.81
2023-02-19T21:34:24.281Z,100002.75
2023-02-19T21:36:52.264Z,100015.16
2023-02-19T21:39:20.236Z,100005.38
2023-02-19T21:41:47.504Z,100018.41
2023-02-19T21:44:15.106Z,100026.91
2023-02-19T21:46:42.418Z,100024.34
2023-02-19T21:49:09.734Z,100021.66
2023-02-19T21:51:37.985Z,100024.75
2023-02-19T21:54:06.071Z,100030.72
2023-02-19T21:56:35.874Z,100026.06
2023-02-19T21:59:03.812Z,100031.88
2023-02-19T22:01:32.596Z,100034.09
2023-02-19T22:04:00.411Z,100052.59
2023-02-19T22:06:29.201Z,100050.84
2023-02-19T22:08:56.890Z,100046.87
2023-02-19T22:11:24.283Z,100048.38
2023-02-19T22:13:51.555Z,100050.69
2023-02-19T22:16:19.211Z,100047.56
2023-02-19T22:18:50.367Z,100068.16
2023-02-19T22:21:17.802Z,100064.00
2023-02-19T22:23:48.283Z,100073.88
2023-02-19T22:26:19.695Z,100080.25
2023-02-19T22:28:47.854Z,100089.31
2023-02-19T22:31:16.075Z,100087.66
2023-02-19T22:33:43.812Z,100099.47
2023-02-19T22:36:15.163Z,100109.91
2023-02-19T22:38:42.610Z,100115.13
2023-02-19T22:41:10.091Z,100123.13
2023-02-19T22:43:37.259Z,100133.78
2023-02-19T22:46:04.668Z,100129.53
2023-02-19T22:48:32.147Z,100135.06
2023-02-19T22:50:59.307Z,100126.97
2023-02-19T22:53:26.544Z,100121.72
2023-02-19T22:55:53.954Z,100115.72
2023-02-19T22:58:21.083Z,100116.84
2023-02-19T23:00:48.355Z,100113.59
2023-02-19T23:03:15.893Z,100115.22
2023-02-19T23:05:43.117Z,100116.47
2023-02-19T23:08:10.362Z,100127.41
2023-02-19T23:10:37.802Z,100125.84
2023-02-19T23:13:04.928Z,100119.81
2023-02-19T23:15:32.174Z,100114.09
2023-02-19T23:17:59.998Z,100100.84
2023-02-19T23:20:27.149Z,100097.66
2023-02-19T23:22:54.361Z,100112.13
2023-02-19T23:25:21.750Z,100117.72
2023-02-19T23:27:48.870Z,100132.13
2023-02-19T23:30:17.067Z,100139.31
2023-02-19T23:32:44.552Z,100131.56
2023-02-19T23:35:11.726Z,100137.72
2023-02-19T23:37:38.956Z,100145.22
2023-02-19T23:40:06.616Z,100152.44
2023-02-19T23:42:33.742Z,100163.53
2023-02-19T23:45:00.930Z,100174.09
2023-02-19T23:47:30.627Z,100179.84
2023-02-19T23:49:57.948Z,100187.06
2023-02-19T23:52:25.188Z,100194.03
2023-02-19T23:54:52.577Z,100191.19
2023-02-19T23:57:19.779Z,100213.41
2023-02-19T23:59:49.134Z,100222.22
